Dampier, Australia
Current Conditions -  °F | °C
As of 12:00 AM on Tuesday 27 Jan 2015 (Local Time) from YPPD Reporting Station
Scattered Clouds Scattered Clouds  
Wind Chill: 81°   Ceiling: Unl
Heat Index: 85°   Visibility: 6mi
Dew Point: 73°   Wind: 7mph
Humidity: 79%   Direction: 330°NNW
Pressure: 29.71"   Gusts: NA
Location:  20.66°S, 116.71°E
Report Text: YPPD 261600Z AUTO 33006KT 9999 // SCT024 27/23 Q1006
Loading
Personal Weather Stations






























Interactive Weather Map New forecast layout! Learn more

10-Day Weather Forecast

Advertisements
Track Severe Weather on mobile